createdAt,value
2022-11-05T00:00:31.738Z,8.60
2022-11-05T00:04:13.228Z,8.50
2022-11-05T00:07:58.083Z,8.50
2022-11-05T00:11:44.188Z,8.50
2022-11-05T00:15:25.980Z,8.50
2022-11-05T00:19:06.351Z,8.40
2022-11-05T00:22:47.434Z,8.40
2022-11-05T00:26:12.510Z,8.40
2022-11-05T00:29:37.497Z,8.40
2022-11-05T00:33:03.943Z,8.40
2022-11-05T00:36:27.581Z,8.40
2022-11-05T00:39:51.282Z,8.30
2022-11-05T00:43:32.137Z,8.30
2022-11-05T00:47:19.868Z,8.30
2022-11-05T00:50:42.825Z,8.20
2022-11-05T00:54:06.545Z,8.20
2022-11-05T00:57:30.217Z,8.20
2022-11-05T01:00:55.363Z,8.10
2022-11-05T01:04:20.333Z,8.10
2022-11-05T01:07:43.919Z,8.00
2022-11-05T01:11:11.455Z,8.00
2022-11-05T01:14:35.193Z,8.00
2022-11-05T01:17:58.809Z,7.90
2022-11-05T01:21:23.816Z,7.90
2022-11-05T01:24:47.374Z,7.90
2022-11-05T01:28:11.470Z,7.80
2022-11-05T01:31:35.024Z,7.80
2022-11-05T01:34:58.675Z,7.70
2022-11-05T01:38:23.674Z,7.70
2022-11-05T01:41:47.286Z,7.60
2022-11-05T01:45:14.838Z,7.60
2022-11-05T01:48:39.457Z,7.50
2022-11-05T01:52:05.659Z,7.40
2022-11-05T01:55:34.392Z,7.30
2022-11-05T01:59:04.673Z,7.40
2022-11-05T02:02:28.606Z,7.30
2022-11-05T02:05:54.256Z,7.30
2022-11-05T02:09:23.300Z,7.20
2022-11-05T02:12:49.267Z,7.30
2022-11-05T02:16:19.877Z,7.30
2022-11-05T02:20:07.155Z,7.20
2022-11-05T02:23:54.802Z,7.10
2022-11-05T02:27:25.057Z,7.10
2022-11-05T02:30:55.954Z,7.10
2022-11-05T02:34:28.187Z,7.00
2022-11-05T02:37:54.430Z,7.00
2022-11-05T02:41:25.545Z,7.00
2022-11-05T02:44:57.932Z,7.00
2022-11-05T02:48:28.820Z,7.00
2022-11-05T02:51:57.717Z,6.90
2022-11-05T02:55:28.539Z,6.80
2022-11-05T02:58:52.246Z,6.80
2022-11-05T03:02:16.332Z,6.90
2022-11-05T03:05:50.923Z,6.80
2022-11-05T03:09:40.198Z,6.90
2022-11-05T03:13:15.221Z,6.90
2022-11-05T03:16:42.811Z,6.90
2022-11-05T03:20:16.622Z,6.90
2022-11-05T03:23:49.209Z,6.90
2022-11-05T03:27:16.037Z,7.00
2022-11-05T03:30:41.957Z,6.90
2022-11-05T03:34:07.538Z,6.90
2022-11-05T03:37:35.564Z,6.90
2022-11-05T03:41:04.622Z,7.00
2022-11-05T03:44:32.018Z,7.00
2022-11-05T03:47:59.906Z,7.10
2022-11-05T03:51:30.369Z,7.00
2022-11-05T03:54:54.376Z,7.10
2022-11-05T03:58:21.387Z,7.00
2022-11-05T04:01:45.764Z,7.00
2022-11-05T04:05:09.455Z,7.00
2022-11-05T04:08:50.373Z,7.00
2022-11-05T04:12:31.410Z,7.00
2022-11-05T04:16:15.349Z,7.10
2022-11-05T04:20:03.303Z,7.10
2022-11-05T04:23:44.746Z,7.10
2022-11-05T04:27:11.203Z,7.20
2022-11-05T04:30:34.803Z,7.20
2022-11-05T04:33:59.938Z,7.20
2022-11-05T04:37:23.516Z,7.20
2022-11-05T04:40:48.606Z,7.30
2022-11-05T04:44:12.218Z,7.30
2022-11-05T04:47:35.962Z,7.30
2022-11-05T04:51:00.960Z,7.30
2022-11-05T04:54:24.603Z,7.30
2022-11-05T04:57:50.257Z,7.40
2022-11-05T05:01:15.894Z,7.40
2022-11-05T05:04:39.664Z,7.30
2022-11-05T05:08:05.241Z,7.30
2022-11-05T05:11:28.872Z,7.30
2022-11-05T05:14:52.543Z,7.30
2022-11-05T05:18:16.294Z,7.40
2022-11-05T05:21:39.044Z,7.40
2022-11-05T05:25:04.679Z,7.30
2022-11-05T05:28:28.600Z,7.40
2022-11-05T05:31:52.189Z,7.50
2022-11-05T05:35:16.457Z,7.50
2022-11-05T05:38:40.237Z,7.40
2022-11-05T05:42:05.494Z,7.40
2022-11-05T05:45:29.126Z,7.30
2022-11-05T05:48:53.501Z,7.30
2022-11-05T05:52:17.124Z,7.30
2022-11-05T05:55:40.817Z,7.30
2022-11-05T05:59:06.401Z,7.40
2022-11-05T06:02:31.754Z,7.40
2022-11-05T06:06:00.337Z,7.20
2022-11-05T06:09:24.015Z,7.00
2022-11-05T06:12:47.581Z,6.90
2022-11-05T06:16:12.594Z,6.90
2022-11-05T06:19:36.302Z,6.80
2022-11-05T06:22:59.980Z,6.80
2022-11-05T06:26:23.687Z,6.80
2022-11-05T06:29:47.339Z,6.90
2022-11-05T06:33:12.607Z,6.80
2022-11-05T06:36:36.402Z,6.90
2022-11-05T06:40:00.204Z,6.90
2022-11-05T06:43:23.857Z,7.00
2022-11-05T06:46:49.075Z,7.00
2022-11-05T06:50:13.978Z,7.00
2022-11-05T06:53:38.044Z,7.00
2022-11-05T06:57:01.632Z,7.10
2022-11-05T07:00:25.417Z,6.90
2022-11-05T07:03:49.805Z,7.00
2022-11-05T07:07:14.901Z,7.10
2022-11-05T07:10:38.624Z,7.00
2022-11-05T07:14:02.387Z,7.00
2022-11-05T07:17:26.100Z,7.10
2022-11-05T07:20:49.874Z,7.00
2022-11-05T07:24:15.451Z,7.10
2022-11-05T07:27:40.070Z,7.10
2022-11-05T07:31:04.253Z,7.20
2022-11-05T07:34:28.237Z,7.20
2022-11-05T07:37:53.995Z,7.20
2022-11-05T07:41:19.161Z,7.30
2022-11-05T07:44:42.850Z,7.30
2022-11-05T07:48:07.148Z,7.40
2022-11-05T07:51:30.815Z,7.50
2022-11-05T07:54:54.378Z,7.60
2022-11-05T07:58:19.591Z,7.60
2022-11-05T08:01:43.608Z,7.50
2022-11-05T08:05:08.098Z,7.60
2022-11-05T08:08:31.775Z,7.70
2022-11-05T08:12:01.635Z,7.70
2022-11-05T08:15:28.227Z,7.70
2022-11-05T08:18:51.903Z,7.80
2022-11-05T08:22:15.619Z,8.10
2022-11-05T08:25:39.694Z,8.40
2022-11-05T08:29:03.332Z,8.90
2022-11-05T08:32:28.341Z,10.40
2022-11-05T08:35:52.291Z,11.20
2022-11-05T08:39:18.559Z,11.50
2022-11-05T08:42:42.532Z,10.30
2022-11-05T08:46:06.441Z,10.20
2022-11-05T08:49:31.431Z,10.50
2022-11-05T08:52:55.051Z,10.70
2022-11-05T08:56:18.688Z,11.00
2022-11-05T08:59:42.339Z,11.50
2022-11-05T09:03:08.391Z,12.00
2022-11-05T09:06:34.003Z,12.00
2022-11-05T09:09:57.678Z,11.40
2022-11-05T09:13:21.830Z,11.60
2022-11-05T09:16:45.751Z,12.00
2022-11-05T09:20:11.888Z,12.00
2022-11-05T09:23:36.960Z,12.90
2022-11-05T09:27:00.658Z,13.50
2022-11-05T09:30:24.348Z,13.40
2022-11-05T09:33:48.124Z,13.90
2022-11-05T09:37:11.972Z,14.20
2022-11-05T09:40:41.998Z,14.40
2022-11-05T09:44:12.744Z,13.80
2022-11-05T09:47:40.709Z,14.20
2022-11-05T09:51:06.341Z,14.80
2022-11-05T09:54:33.148Z,14.30
2022-11-05T09:58:00.417Z,14.50
2022-11-05T10:01:28.177Z,14.60
2022-11-05T10:04:56.322Z,13.80
2022-11-05T10:08:23.704Z,14.30
2022-11-05T10:11:50.596Z,14.30
2022-11-05T10:15:21.935Z,14.90
2022-11-05T10:18:51.648Z,15.00
2022-11-05T10:22:17.238Z,14.70
2022-11-05T10:25:44.917Z,14.10
2022-11-05T10:29:08.720Z,14.40
2022-11-05T10:32:37.692Z,14.80
2022-11-05T10:36:05.797Z,14.40
2022-11-05T10:39:31.886Z,14.70
2022-11-05T10:43:03.344Z,14.70
2022-11-05T10:46:33.183Z,14.90
2022-11-05T10:50:00.624Z,14.70
2022-11-05T10:53:29.603Z,14.20
2022-11-05T10:56:54.023Z,13.70
2022-11-05T11:00:28.230Z,13.60
2022-11-05T11:03:54.216Z,13.10
2022-11-05T11:07:24.544Z,13.00
2022-11-05T11:10:51.272Z,12.50
2022-11-05T11:14:22.100Z,12.30
2022-11-05T11:17:45.724Z,12.20
2022-11-05T11:21:15.213Z,12.20
2022-11-05T11:24:42.181Z,12.20
2022-11-05T11:28:07.976Z,12.00
2022-11-05T11:31:34.361Z,12.10
2022-11-05T11:34:58.772Z,12.30
2022-11-05T11:38:33.881Z,12.30
2022-11-05T11:42:01.624Z,12.30
2022-11-05T11:45:28.885Z,12.20
2022-11-05T11:48:52.734Z,12.20
2022-11-05T11:52:19.388Z,12.00
2022-11-05T11:55:57.934Z,11.90
2022-11-05T11:59:53.917Z,11.90
2022-11-05T12:03:24.304Z,11.90
2022-11-05T12:06:57.002Z,11.90
2022-11-05T12:10:33.244Z,11.80
2022-11-05T12:14:04.308Z,11.70
2022-11-05T12:17:39.818Z,11.70
2022-11-05T12:21:08.355Z,11.80
2022-11-05T12:24:48.051Z,11.80
2022-11-05T12:28:57.767Z,11.70
2022-11-05T12:32:42.878Z,11.70
2022-11-05T12:36:22.314Z,11.70
2022-11-05T12:40:00.435Z,11.80
2022-11-05T12:43:34.443Z,11.80
2022-11-05T12:47:07.944Z,11.70
2022-11-05T12:50:43.297Z,11.80
2022-11-05T12:54:21.151Z,11.90
2022-11-05T12:57:47.503Z,12.00
2022-11-05T13:01:15.848Z,12.00
2022-11-05T13:04:44.789Z,11.90
2022-11-05T13:08:14.118Z,11.80
2022-11-05T13:11:43.036Z,11.80
2022-11-05T13:15:17.533Z,11.80
2022-11-05T13:18:46.892Z,11.80
2022-11-05T13:22:29.910Z,11.90
2022-11-05T13:26:00.212Z,11.90
2022-11-05T13:29:28.400Z,11.90
2022-11-05T13:32:57.865Z,11.90
2022-11-05T13:36:43.100Z,12.00
2022-11-05T13:40:11.706Z,12.10
2022-11-05T13:43:51.748Z,12.10
2022-11-05T13:47:47.788Z,12.00
2022-11-05T13:51:38.680Z,11.90
2022-11-05T13:55:34.222Z,12.00
2022-11-05T13:59:24.020Z,12.00
2022-11-05T14:02:52.202Z,11.90
2022-11-05T14:06:23.327Z,11.90
2022-11-05T14:09:48.461Z,12.00
2022-11-05T14:13:24.361Z,12.00
2022-11-05T14:16:52.863Z,11.90
2022-11-05T14:20:42.544Z,11.90
2022-11-05T14:24:41.387Z,11.90
2022-11-05T14:28:41.853Z,11.80
2022-11-05T14:32:26.069Z,11.70
2022-11-05T14:35:49.902Z,11.60
2022-11-05T14:39:19.968Z,11.50
2022-11-05T14:42:52.700Z,11.40
2022-11-05T14:46:17.708Z,11.50
2022-11-05T14:49:53.944Z,11.40
2022-11-05T14:53:29.271Z,11.30
2022-11-05T14:56:56.986Z,11.30
2022-11-05T15:00:43.024Z,11.30
2022-11-05T15:04:19.236Z,11.20
2022-11-05T15:07:44.368Z,11.20
2022-11-05T15:11:16.163Z,11.30
2022-11-05T15:14:50.037Z,11.30
2022-11-05T15:18:18.363Z,11.20
2022-11-05T15:21:42.277Z,11.10
2022-11-05T15:25:17.761Z,11.00
2022-11-05T15:28:44.772Z,10.90
2022-11-05T15:32:17.327Z,10.80
2022-11-05T15:35:42.464Z,10.80
2022-11-05T15:39:29.380Z,10.70
2022-11-05T15:43:20.629Z,10.70
2022-11-05T15:46:44.310Z,10.60
2022-11-05T15:50:15.297Z,10.50
2022-11-05T15:57:50.272Z,10.40
2022-11-05T16:01:27.790Z,10.40
2022-11-05T16:04:52.677Z,10.30
2022-11-05T16:08:20.521Z,10.30
2022-11-05T16:11:44.163Z,10.30
2022-11-05T16:15:23.399Z,10.30
2022-11-05T16:18:48.995Z,10.20
2022-11-05T16:22:12.694Z,10.20
2022-11-05T16:25:41.189Z,10.20
2022-11-05T16:29:12.963Z,10.20
2022-11-05T16:32:36.794Z,10.10
2022-11-05T16:36:01.945Z,10.10
2022-11-05T16:39:26.136Z,10.10
2022-11-05T16:42:51.480Z,10.10
2022-11-05T16:46:15.456Z,10.10
2022-11-05T16:49:39.487Z,10.00
2022-11-05T16:53:04.632Z,10.00
2022-11-05T16:56:28.249Z,10.00
2022-11-05T16:59:52.066Z,10.00
2022-11-05T17:03:15.712Z,10.00
2022-11-05T17:06:39.432Z,9.90
2022-11-05T17:10:04.957Z,10.00
2022-11-05T17:13:28.903Z,9.90
2022-11-05T17:16:52.636Z,9.90
2022-11-05T17:20:25.376Z,9.80
2022-11-05T17:23:48.910Z,9.80
2022-11-05T17:27:13.923Z,9.80
2022-11-05T17:30:40.349Z,9.80
2022-11-05T17:34:05.255Z,9.80
2022-11-05T17:37:29.010Z,9.80
2022-11-05T17:40:52.713Z,9.80
2022-11-05T17:44:17.792Z,9.80
2022-11-05T17:47:42.167Z,9.80
2022-11-05T17:51:09.453Z,9.70
2022-11-05T17:54:33.065Z,9.70
2022-11-05T17:57:56.652Z,9.70
2022-11-05T18:01:27.310Z,9.70
2022-11-05T18:04:51.144Z,9.60
2022-11-05T18:08:14.897Z,9.60
2022-11-05T18:11:39.932Z,9.60
2022-11-05T18:15:03.548Z,9.60
2022-11-05T18:18:28.479Z,9.60
2022-11-05T18:21:52.105Z,9.60
2022-11-05T18:25:15.742Z,9.60
2022-11-05T18:28:39.666Z,9.60
2022-11-05T18:32:03.419Z,9.50
2022-11-05T18:35:28.695Z,9.50
2022-11-05T18:38:53.061Z,9.50
2022-11-05T18:42:16.569Z,9.50
2022-11-05T18:45:40.385Z,9.50
2022-11-05T18:49:04.231Z,9.50
2022-11-05T18:52:31.580Z,9.50
2022-11-05T18:55:55.207Z,9.40
2022-11-05T18:59:38.771Z,9.50
2022-11-05T19:03:03.260Z,9.40
2022-11-05T19:06:27.106Z,9.40
2022-11-05T19:09:52.268Z,9.30
2022-11-05T19:13:16.329Z,9.40
2022-11-05T19:16:39.998Z,9.40
2022-11-05T19:20:05.001Z,9.30
2022-11-05T19:23:28.605Z,9.30
2022-11-05T19:26:53.944Z,9.30
2022-11-05T19:30:17.551Z,9.30
2022-11-05T19:33:41.404Z,9.30
2022-11-05T19:37:07.191Z,9.30
2022-11-05T19:40:30.980Z,9.30
2022-11-05T19:43:57.945Z,9.30
2022-11-05T19:47:21.653Z,9.30
2022-11-05T19:50:45.262Z,9.20
2022-11-05T19:54:10.379Z,9.30
2022-11-05T19:57:36.751Z,9.20
2022-11-05T20:01:01.881Z,9.20
2022-11-05T20:04:25.873Z,9.20
2022-11-05T20:07:52.744Z,9.20
2022-11-05T20:11:18.481Z,9.20
2022-11-05T20:14:42.177Z,9.20
2022-11-05T20:18:08.714Z,9.30
2022-11-05T20:21:32.636Z,9.20
2022-11-05T20:24:56.408Z,9.30
2022-11-05T20:28:20.000Z,9.30
2022-11-05T20:31:43.616Z,9.30
2022-11-05T20:35:09.898Z,9.30
2022-11-05T20:38:33.724Z,9.30
2022-11-05T20:41:57.455Z,9.20
2022-11-05T20:45:21.513Z,9.30
2022-11-05T20:48:45.713Z,9.20
2022-11-05T20:52:12.044Z,9.10
2022-11-05T20:55:41.706Z,9.10
2022-11-05T20:59:07.452Z,9.10
2022-11-05T21:02:34.306Z,9.10
2022-11-05T21:05:59.830Z,9.20
2022-11-05T21:09:24.865Z,9.10
2022-11-05T21:12:48.496Z,9.10
2022-11-05T21:16:17.678Z,9.10
2022-11-05T21:19:41.727Z,9.00
2022-11-05T21:23:05.340Z,9.00
2022-11-05T21:26:31.574Z,9.00
2022-11-05T21:29:55.185Z,9.10
2022-11-05T21:33:19.848Z,9.10
2022-11-05T21:36:43.478Z,9.10
2022-11-05T21:40:07.910Z,9.10
2022-11-05T21:43:33.357Z,9.10
2022-11-05T21:46:57.747Z,9.10
2022-11-05T21:50:41.491Z,9.10
2022-11-05T21:54:19.194Z,9.10
2022-11-05T21:58:01.156Z,9.00
2022-11-05T22:01:26.182Z,9.10
2022-11-05T22:04:52.050Z,9.10
2022-11-05T22:08:15.805Z,9.10
2022-11-05T22:11:39.707Z,9.10
2022-11-05T22:15:03.314Z,9.00
2022-11-05T22:18:28.403Z,9.00
2022-11-05T22:21:52.088Z,9.00
2022-11-05T22:25:16.819Z,9.00
2022-11-05T22:28:40.543Z,9.00
2022-11-05T22:32:04.443Z,9.00
2022-11-05T22:35:30.041Z,9.00
2022-11-05T22:38:53.931Z,9.10
2022-11-05T22:42:17.506Z,9.10
2022-11-05T22:45:41.208Z,9.10
2022-11-05T22:49:06.264Z,9.10
2022-11-05T22:52:32.602Z,9.00
2022-11-05T22:55:56.246Z,9.00
2022-11-05T22:59:20.348Z,9.00
2022-11-05T23:02:44.399Z,9.00
2022-11-05T23:06:30.057Z,9.10
2022-11-05T23:10:12.316Z,9.10
2022-11-05T23:13:36.006Z,9.10
2022-11-05T23:17:22.498Z,9.10
2022-11-05T23:21:03.589Z,9.00
2022-11-05T23:24:27.367Z,9.00
2022-11-05T23:27:53.823Z,9.00
2022-11-05T23:31:40.298Z,9.00
2022-11-05T23:35:05.237Z,8.90
2022-11-05T23:38:33.857Z,8.90
2022-11-05T23:42:14.806Z,8.90
2022-11-05T23:45:58.284Z,8.90
2022-11-05T23:49:22.525Z,8.90
2022-11-05T23:52:46.286Z,8.90
2022-11-05T23:56:12.635Z,8.90
2022-11-05T23:59:36.234Z,8.90
